sensor_id;sensor_type;location;lat;lon;timestamp;P1;durP1;ratioP1;P2;durP2;ratioP2
28774;SDS011;15926;51.348;6.596;2023-12-20T00:01:02;20.70;;;8.57;;
28774;SDS011;15926;51.348;6.596;2023-12-20T00:03:28;21.50;;;8.38;;
28774;SDS011;15926;51.348;6.596;2023-12-20T00:05:54;20.08;;;7.95;;
28774;SDS011;15926;51.348;6.596;2023-12-20T00:08:20;25.20;;;8.07;;
28774;SDS011;15926;51.348;6.596;2023-12-20T00:10:49;21.75;;;8.27;;
28774;SDS011;15926;51.348;6.596;2023-12-20T00:13:18;19.92;;;7.47;;
28774;SDS011;15926;51.348;6.596;2023-12-20T00:15:53;17.30;;;7.50;;
28774;SDS011;15926;51.348;6.596;2023-12-20T00:18:19;24.63;;;7.93;;
28774;SDS011;15926;51.348;6.596;2023-12-20T00:20:46;27.08;;;8.32;;
28774;SDS011;15926;51.348;6.596;2023-12-20T00:23:17;17.48;;;7.32;;
28774;SDS011;15926;51.348;6.596;2023-12-20T00:28:40;18.73;;;8.93;;
28774;SDS011;15926;51.348;6.596;2023-12-20T00:31:07;21.42;;;8.52;;
28774;SDS011;15926;51.348;6.596;2023-12-20T00:33:33;25.65;;;8.25;;
28774;SDS011;15926;51.348;6.596;2023-12-20T00:35:59;25.27;;;9.00;;
28774;SDS011;15926;51.348;6.596;2023-12-20T00:38:25;22.55;;;8.98;;
28774;SDS011;15926;51.348;6.596;2023-12-20T00:40:51;27.63;;;10.20;;
28774;SDS011;15926;51.348;6.596;2023-12-20T00:43:18;21.73;;;9.10;;
28774;SDS011;15926;51.348;6.596;2023-12-20T00:45:44;20.23;;;9.52;;
28774;SDS011;15926;51.348;6.596;2023-12-20T00:54:22;24.38;;;10.40;;
28774;SDS011;15926;51.348;6.596;2023-12-20T02:40:17;11.98;;;4.50;;
28774;SDS011;15926;51.348;6.596;2023-12-20T03:49:17;14.30;;;3.05;;
28774;SDS011;15926;51.348;6.596;2023-12-20T04:17:21;11.13;;;3.03;;
28774;SDS011;15926;51.348;6.596;2023-12-20T08:09:09;20.45;;;5.05;;
28774;SDS011;15926;51.348;6.596;2023-12-20T08:46:55;19.02;;;3.90;;
28774;SDS011;15926;51.348;6.596;2023-12-20T08:49:44;17.60;;;4.30;;
28774;SDS011;15926;51.348;6.596;2023-12-20T08:52:32;10.07;;;2.95;;
28774;SDS011;15926;51.348;6.596;2023-12-20T08:55:12;13.88;;;4.35;;
28774;SDS011;15926;51.348;6.596;2023-12-20T08:57:49;12.88;;;3.03;;
28774;SDS011;15926;51.348;6.596;2023-12-20T09:00:15;12.35;;;3.45;;
28774;SDS011;15926;51.348;6.596;2023-12-20T09:02:42;11.60;;;3.95;;
28774;SDS011;15926;51.348;6.596;2023-12-20T09:05:08;17.98;;;3.03;;
28774;SDS011;15926;51.348;6.596;2023-12-20T09:07:40;13.52;;;3.10;;
28774;SDS011;15926;51.348;6.596;2023-12-20T09:13:09;14.27;;;3.45;;
28774;SDS011;15926;51.348;6.596;2023-12-20T09:15:38;12.02;;;3.22;;
28774;SDS011;15926;51.348;6.596;2023-12-20T09:18:07;9.40;;;2.60;;
28774;SDS011;15926;51.348;6.596;2023-12-20T09:20:33;11.48;;;2.65;;
28774;SDS011;15926;51.348;6.596;2023-12-20T09:23:00;18.08;;;3.78;;
28774;SDS011;15926;51.348;6.596;2023-12-20T09:25:26;16.45;;;3.08;;
28774;SDS011;15926;51.348;6.596;2023-12-20T09:27:53;16.30;;;3.88;;
28774;SDS011;15926;51.348;6.596;2023-12-20T09:30:35;18.17;;;3.53;;
28774;SDS011;15926;51.348;6.596;2023-12-20T09:33:04;12.20;;;3.78;;
28774;SDS011;15926;51.348;6.596;2023-12-20T09:35:32;11.23;;;3.90;;
28774;SDS011;15926;51.348;6.596;2023-12-20T09:37:58;9.27;;;3.60;;
28774;SDS011;15926;51.348;6.596;2023-12-20T09:40:27;11.13;;;3.67;;
28774;SDS011;15926;51.348;6.596;2023-12-20T09:43:37;16.33;;;2.88;;
28774;SDS011;15926;51.348;6.596;2023-12-20T09:45:48;13.48;;;3.25;;
28774;SDS011;15926;51.348;6.596;2023-12-20T09:48:15;11.95;;;3.00;;
28774;SDS011;15926;51.348;6.596;2023-12-20T09:50:46;12.23;;;2.85;;
28774;SDS011;15926;51.348;6.596;2023-12-20T09:53:14;12.15;;;4.22;;
28774;SDS011;15926;51.348;6.596;2023-12-20T09:55:44;18.17;;;3.10;;
28774;SDS011;15926;51.348;6.596;2023-12-20T09:58:26;9.70;;;2.80;;
28774;SDS011;15926;51.348;6.596;2023-12-20T10:00:55;11.75;;;2.63;;
28774;SDS011;15926;51.348;6.596;2023-12-20T10:05:59;13.57;;;3.25;;
28774;SDS011;15926;51.348;6.596;2023-12-20T10:08:38;10.45;;;3.10;;
28774;SDS011;15926;51.348;6.596;2023-12-20T10:14:07;7.15;;;2.80;;
28774;SDS011;15926;51.348;6.596;2023-12-20T10:19:25;12.02;;;2.60;;
28774;SDS011;15926;51.348;6.596;2023-12-20T10:22:01;6.50;;;2.63;;
28774;SDS011;15926;51.348;6.596;2023-12-20T10:27:32;12.45;;;2.92;;
28774;SDS011;15926;51.348;6.596;2023-12-20T10:30:10;13.57;;;2.53;;
28774;SDS011;15926;51.348;6.596;2023-12-20T10:35:37;8.38;;;2.90;;
28774;SDS011;15926;51.348;6.596;2023-12-20T10:38:07;11.73;;;2.85;;
28774;SDS011;15926;51.348;6.596;2023-12-20T10:40:54;13.52;;;3.00;;
28774;SDS011;15926;51.348;6.596;2023-12-20T10:43:30;11.30;;;3.03;;
28774;SDS011;15926;51.348;6.596;2023-12-20T10:51:35;15.63;;;2.60;;
28774;SDS011;15926;51.348;6.596;2023-12-20T10:54:04;16.25;;;3.20;;
28774;SDS011;15926;51.348;6.596;2023-12-20T10:56:50;15.52;;;3.00;;
28774;SDS011;15926;51.348;6.596;2023-12-20T10:59:20;14.32;;;3.28;;
28774;SDS011;15926;51.348;6.596;2023-12-20T11:01:56;16.33;;;3.55;;
28774;SDS011;15926;51.348;6.596;2023-12-20T11:10:49;15.15;;;3.65;;
28774;SDS011;15926;51.348;6.596;2023-12-20T11:25:19;14.52;;;2.65;;
28774;SDS011;15926;51.348;6.596;2023-12-20T11:30:56;11.95;;;2.63;;
28774;SDS011;15926;51.348;6.596;2023-12-20T11:33:39;9.60;;;2.70;;
28774;SDS011;15926;51.348;6.596;2023-12-20T11:36:15;12.00;;;3.42;;
28774;SDS011;15926;51.348;6.596;2023-12-20T11:38:53;14.73;;;2.85;;
28774;SDS011;15926;51.348;6.596;2023-12-20T11:41:36;15.60;;;3.17;;
28774;SDS011;15926;51.348;6.596;2023-12-20T11:46:29;8.57;;;3.10;;
28774;SDS011;15926;51.348;6.596;2023-12-20T11:49:12;10.05;;;3.65;;
28774;SDS011;15926;51.348;6.596;2023-12-20T11:51:56;12.70;;;3.35;;
28774;SDS011;15926;51.348;6.596;2023-12-20T11:54:46;19.63;;;4.80;;
28774;SDS011;15926;51.348;6.596;2023-12-20T11:57:25;14.25;;;3.35;;
28774;SDS011;15926;51.348;6.596;2023-12-20T11:59:56;15.23;;;4.43;;
28774;SDS011;15926;51.348;6.596;2023-12-20T12:09:12;11.77;;;3.78;;
28774;SDS011;15926;51.348;6.596;2023-12-20T12:11:45;14.13;;;3.88;;
28774;SDS011;15926;51.348;6.596;2023-12-20T12:14:23;9.40;;;3.92;;
28774;SDS011;15926;51.348;6.596;2023-12-20T12:17:41;19.45;;;3.55;;
28774;SDS011;15926;51.348;6.596;2023-12-20T12:20:06;5.38;;;2.80;;
28774;SDS011;15926;51.348;6.596;2023-12-20T12:22:44;13.23;;;3.60;;
28774;SDS011;15926;51.348;6.596;2023-12-20T12:25:28;8.90;;;3.67;;
28774;SDS011;15926;51.348;6.596;2023-12-20T12:28:15;15.02;;;3.28;;
28774;SDS011;15926;51.348;6.596;2023-12-20T12:30:55;10.60;;;3.45;;
28774;SDS011;15926;51.348;6.596;2023-12-20T12:34:02;10.15;;;3.28;;
28774;SDS011;15926;51.348;6.596;2023-12-20T12:36:48;10.93;;;4.00;;
28774;SDS011;15926;51.348;6.596;2023-12-20T12:39:17;14.52;;;3.80;;
28774;SDS011;15926;51.348;6.596;2023-12-20T12:41:46;15.50;;;5.13;;
28774;SDS011;15926;51.348;6.596;2023-12-20T12:44:16;17.30;;;3.58;;
28774;SDS011;15926;51.348;6.596;2023-12-20T12:47:03;15.18;;;3.75;;
28774;SDS011;15926;51.348;6.596;2023-12-20T12:49:32;12.35;;;4.43;;
28774;SDS011;15926;51.348;6.596;2023-12-20T12:51:58;7.50;;;3.05;;
28774;SDS011;15926;51.348;6.596;2023-12-20T12:54:33;14.15;;;4.15;;
28774;SDS011;15926;51.348;6.596;2023-12-20T12:57:00;13.32;;;4.15;;
28774;SDS011;15926;51.348;6.596;2023-12-20T12:59:26;14.32;;;4.97;;
28774;SDS011;15926;51.348;6.596;2023-12-20T13:01:57;10.23;;;4.18;;
28774;SDS011;15926;51.348;6.596;2023-12-20T13:04:35;14.95;;;5.57;;
28774;SDS011;15926;51.348;6.596;2023-12-20T13:07:01;24.30;;;7.13;;
28774;SDS011;15926;51.348;6.596;2023-12-20T13:09:27;11.55;;;5.65;;
28774;SDS011;15926;51.348;6.596;2023-12-20T13:11:53;13.35;;;5.03;;
28774;SDS011;15926;51.348;6.596;2023-12-20T13:14:20;18.08;;;5.20;;
28774;SDS011;15926;51.348;6.596;2023-12-20T13:16:57;15.10;;;5.03;;
28774;SDS011;15926;51.348;6.596;2023-12-20T13:19:49;15.13;;;4.82;;
28774;SDS011;15926;51.348;6.596;2023-12-20T13:22:16;13.27;;;4.97;;
28774;SDS011;15926;51.348;6.596;2023-12-20T13:24:44;16.80;;;5.85;;
28774;SDS011;15926;51.348;6.596;2023-12-20T13:27:10;16.65;;;5.50;;
28774;SDS011;15926;51.348;6.596;2023-12-20T13:29:37;14.68;;;5.40;;
28774;SDS011;15926;51.348;6.596;2023-12-20T13:32:03;13.05;;;4.88;;
28774;SDS011;15926;51.348;6.596;2023-12-20T13:34:32;16.02;;;5.68;;
28774;SDS011;15926;51.348;6.596;2023-12-20T13:36:58;16.50;;;5.63;;
28774;SDS011;15926;51.348;6.596;2023-12-20T13:39:25;14.02;;;6.22;;
28774;SDS011;15926;51.348;6.596;2023-12-20T13:41:51;20.58;;;6.10;;
28774;SDS011;15926;51.348;6.596;2023-12-20T13:44:23;17.35;;;5.90;;
28774;SDS011;15926;51.348;6.596;2023-12-20T13:46:50;11.73;;;6.20;;
28774;SDS011;15926;51.348;6.596;2023-12-20T13:49:16;16.88;;;5.82;;
28774;SDS011;15926;51.348;6.596;2023-12-20T13:51:42;16.83;;;6.10;;
28774;SDS011;15926;51.348;6.596;2023-12-20T13:54:13;18.27;;;6.97;;
28774;SDS011;15926;51.348;6.596;2023-12-20T13:56:41;17.03;;;6.07;;
28774;SDS011;15926;51.348;6.596;2023-12-20T13:59:08;17.20;;;6.57;;
28774;SDS011;15926;51.348;6.596;2023-12-20T14:01:34;17.05;;;6.15;;
28774;SDS011;15926;51.348;6.596;2023-12-20T14:04:01;14.20;;;6.18;;
28774;SDS011;15926;51.348;6.596;2023-12-20T14:06:27;15.40;;;6.18;;
28774;SDS011;15926;51.348;6.596;2023-12-20T14:08:53;12.27;;;6.78;;
28774;SDS011;15926;51.348;6.596;2023-12-20T14:11:19;16.05;;;6.50;;
28774;SDS011;15926;51.348;6.596;2023-12-20T14:13:45;12.95;;;5.88;;
28774;SDS011;15926;51.348;6.596;2023-12-20T14:16:11;19.88;;;5.60;;
28774;SDS011;15926;51.348;6.596;2023-12-20T14:18:37;16.48;;;6.05;;
28774;SDS011;15926;51.348;6.596;2023-12-20T14:21:05;18.05;;;5.93;;
28774;SDS011;15926;51.348;6.596;2023-12-20T14:23:37;13.95;;;5.10;;
28774;SDS011;15926;51.348;6.596;2023-12-20T14:26:03;17.30;;;5.82;;
28774;SDS011;15926;51.348;6.596;2023-12-20T14:28:29;23.02;;;5.88;;
28774;SDS011;15926;51.348;6.596;2023-12-20T14:30:56;18.75;;;5.35;;
28774;SDS011;15926;51.348;6.596;2023-12-20T14:33:22;14.70;;;5.40;;
28774;SDS011;15926;51.348;6.596;2023-12-20T14:35:48;15.15;;;5.20;;
28774;SDS011;15926;51.348;6.596;2023-12-20T14:38:17;14.45;;;5.00;;
28774;SDS011;15926;51.348;6.596;2023-12-20T15:02:56;12.07;;;5.22;;
28774;SDS011;15926;51.348;6.596;2023-12-20T15:05:41;10.07;;;4.63;;
28774;SDS011;15926;51.348;6.596;2023-12-20T15:11:19;23.88;;;5.65;;
28774;SDS011;15926;51.348;6.596;2023-12-20T15:45:16;13.90;;;6.00;;
28774;SDS011;15926;51.348;6.596;2023-12-20T15:51:27;13.20;;;4.53;;
28774;SDS011;15926;51.348;6.596;2023-12-20T16:00:45;22.48;;;5.28;;
28774;SDS011;15926;51.348;6.596;2023-12-20T16:05:59;17.10;;;6.15;;
28774;SDS011;15926;51.348;6.596;2023-12-20T16:08:28;12.48;;;5.32;;
28774;SDS011;15926;51.348;6.596;2023-12-20T16:14:31;16.83;;;4.80;;
28774;SDS011;15926;51.348;6.596;2023-12-20T16:25:54;21.45;;;5.75;;
28774;SDS011;15926;51.348;6.596;2023-12-20T16:31:26;17.55;;;5.60;;
28774;SDS011;15926;51.348;6.596;2023-12-20T16:43:44;18.00;;;6.30;;
28774;SDS011;15926;51.348;6.596;2023-12-20T16:58:57;16.77;;;6.22;;
28774;SDS011;15926;51.348;6.596;2023-12-20T17:07:53;23.23;;;6.43;;
28774;SDS011;15926;51.348;6.596;2023-12-20T17:10:44;13.30;;;6.05;;
28774;SDS011;15926;51.348;6.596;2023-12-20T17:16:56;18.02;;;6.57;;
28774;SDS011;15926;51.348;6.596;2023-12-20T17:19:28;13.75;;;5.72;;
28774;SDS011;15926;51.348;6.596;2023-12-20T17:21:56;16.92;;;6.43;;
28774;SDS011;15926;51.348;6.596;2023-12-20T17:24:28;16.33;;;6.78;;
28774;SDS011;15926;51.348;6.596;2023-12-20T18:10:44;14.35;;;7.00;;
28774;SDS011;15926;51.348;6.596;2023-12-20T18:29:30;13.55;;;5.45;;
28774;SDS011;15926;51.348;6.596;2023-12-20T18:38:34;17.45;;;6.80;;
28774;SDS011;15926;51.348;6.596;2023-12-20T18:53:20;13.10;;;5.47;;
28774;SDS011;15926;51.348;6.596;2023-12-20T19:05:29;11.07;;;5.53;;
28774;SDS011;15926;51.348;6.596;2023-12-20T19:08:11;12.63;;;5.50;;
28774;SDS011;15926;51.348;6.596;2023-12-20T19:23:46;9.80;;;5.30;;
28774;SDS011;15926;51.348;6.596;2023-12-20T19:27:07;9.93;;;5.53;;
28774;SDS011;15926;51.348;6.596;2023-12-20T19:32:49;7.60;;;4.53;;
28774;SDS011;15926;51.348;6.596;2023-12-20T19:51:33;9.88;;;5.75;;
28774;SDS011;15926;51.348;6.596;2023-12-20T20:06:44;15.57;;;6.15;;
28774;SDS011;15926;51.348;6.596;2023-12-20T20:30:45;10.57;;;6.63;;
28774;SDS011;15926;51.348;6.596;2023-12-20T20:51:37;17.38;;;7.32;;
28774;SDS011;15926;51.348;6.596;2023-12-20T20:54:31;14.02;;;6.95;;
28774;SDS011;15926;51.348;6.596;2023-12-20T20:57:23;9.80;;;6.80;;
28774;SDS011;15926;51.348;6.596;2023-12-20T21:00:04;15.30;;;7.15;;
28774;SDS011;15926;51.348;6.596;2023-12-20T21:09:51;14.80;;;7.97;;
28774;SDS011;15926;51.348;6.596;2023-12-20T21:15:47;16.52;;;7.93;;
28774;SDS011;15926;51.348;6.596;2023-12-20T21:36:46;11.93;;;6.95;;
28774;SDS011;15926;51.348;6.596;2023-12-20T21:51:56;18.58;;;6.80;;
28774;SDS011;15926;51.348;6.596;2023-12-20T22:00:44;19.27;;;8.68;;
28774;SDS011;15926;51.348;6.596;2023-12-20T22:12:36;14.70;;;6.63;;
28774;SDS011;15926;51.348;6.596;2023-12-20T22:49:06;14.05;;;7.78;;
28774;SDS011;15926;51.348;6.596;2023-12-20T23:04:54;20.23;;;8.70;;
28774;SDS011;15926;51.348;6.596;2023-12-20T23:10:17;13.55;;;8.75;;
28774;SDS011;15926;51.348;6.596;2023-12-20T23:22:25;14.90;;;8.73;;
28774;SDS011;15926;51.348;6.596;2023-12-20T23:24:54;13.75;;;9.07;;
28774;SDS011;15926;51.348;6.596;2023-12-20T23:34:06;18.10;;;9.25;;
28774;SDS011;15926;51.348;6.596;2023-12-20T23:36:32;19.80;;;9.15;;
28774;SDS011;15926;51.348;6.596;2023-12-20T23:57:12;19.27;;;10.88;;
